Time;durP1;ratioP1;P1;durP2;ratioP2;P2;SDS_P1;SDS_P2;PMS_P1;PMS_P2;Temp;Humidity;BMP_temperature;BMP_pressure;BME280_temperature;BME280_humidity;BME280_pressure;Samples;Min_cycle;Max_cycle;Signal;HPM_P1;HPM_P2
2023/05/23 00:00:21;563483.00;1.88;971.21;92422.00;0.31;160.49;;;;;20.70;2.60;;;;;;2267888;61;1086;-88
2023/05/23 00:02:48;535539.00;1.79;923.04;88480.00;0.29;153.68;;;;;20.50;2.40;;;;;;2267749;61;1048;-88
2023/05/23 00:05:16;414249.00;1.38;714.30;0.00;0.00;0.62;;;;;20.30;3.10;;;;;;2267720;61;1375;-87
2023/05/23 00:07:43;353202.00;1.18;609.36;0.00;0.00;0.62;;;;;20.40;3.50;;;;;;2267799;61;1082;-88
2023/05/23 00:10:11;658328.00;2.19;1135.05;107629.00;0.36;186.74;;;;;20.10;3.70;;;;;;2267715;61;1564;-88
2023/05/23 00:12:38;390136.00;1.30;672.85;0.00;0.00;0.62;;;;;19.90;4.60;;;;;;2267658;61;1998;-88
2023/05/23 00:15:07;241466.00;0.80;417.27;0.00;0.00;0.62;;;;;19.70;6.50;;;;;;2267603;61;1665;-87
2023/05/23 00:17:36;490156.00;1.63;844.88;22361.00;0.07;39.36;;;;;19.80;4.90;;;;;;2267701;61;1472;-88
2023/05/23 00:20:04;393021.00;1.31;677.81;0.00;0.00;0.62;;;;;20.00;4.90;;;;;;2267784;61;1134;-89
2023/05/23 00:22:31;305580.00;1.02;527.51;0.00;0.00;0.62;;;;;20.00;4.00;;;;;;2268033;61;1017;-89
2023/05/23 00:24:58;281340.00;0.94;485.84;0.00;0.00;0.62;;;;;20.10;3.90;;;;;;2268423;61;1274;-88
2023/05/23 00:27:25;436335.00;1.45;752.28;0.00;0.00;0.62;;;;;20.00;4.10;;;;;;2268458;61;1605;-89
2023/05/23 00:29:52;499159.00;1.66;860.38;0.00;0.00;0.62;;;;;19.80;5.00;;;;;;2268377;61;1582;-89
2023/05/23 00:32:18;677574.00;2.26;1168.37;12429.00;0.04;22.16;;;;;20.10;3.70;;;;;;2268346;61;2010;-88
2023/05/23 00:34:47;456493.00;1.52;786.95;0.00;0.00;0.62;;;;;20.00;4.40;;;;;;2268277;61;1592;-87
2023/05/23 00:37:14;535933.00;1.79;923.71;0.00;0.00;0.62;;;;;20.00;4.30;;;;;;2268325;61;1640;-88
2023/05/23 00:39:41;282991.00;0.94;488.68;0.00;0.00;0.62;;;;;20.00;4.40;;;;;;2268399;61;1592;-88
2023/05/23 00:42:08;427418.00;1.42;736.95;0.00;0.00;0.62;;;;;20.20;4.20;;;;;;2268276;61;1021;-88
2023/05/23 00:44:35;572380.00;1.91;986.55;33397.00;0.11;58.46;;;;;20.30;2.60;;;;;;2268266;61;1490;-88
2023/05/23 00:47:03;619966.00;2.07;1068.71;59449.00;0.20;103.52;;;;;20.00;3.70;;;;;;2268329;61;1044;-89
2023/05/23 00:49:30;440373.00;1.47;759.22;0.00;0.00;0.62;;;;;19.90;4.80;;;;;;2268263;61;1000;-88
2023/05/23 00:51:59;540006.00;1.80;930.73;57280.00;0.19;99.77;;;;;20.00;5.00;;;;;;2268278;61;1923;-89
2023/05/23 00:54:30;380838.00;1.27;656.87;0.00;0.00;0.62;;;;;20.20;5.00;;;;;;2268260;61;1596;-87
2023/05/23 00:56:58;354962.00;1.18;612.39;0.00;0.00;0.62;;;;;20.20;3.70;;;;;;2268299;61;988;-88
2023/05/23 00:59:25;291851.00;0.97;503.91;0.00;0.00;0.62;;;;;20.30;3.40;;;;;;2268272;61;942;-87
2023/05/23 01:01:54;268414.00;0.89;463.62;0.00;0.00;0.62;;;;;20.40;2.80;;;;;;2268275;61;891;-89
2023/05/23 01:04:25;304131.00;1.01;525.02;0.00;0.00;0.62;;;;;20.10;4.10;;;;;;2268187;61;2176;-88
2023/05/23 01:06:53;473227.00;1.58;815.74;40709.00;0.14;71.12;;;;;20.20;4.80;;;;;;2268187;61;1043;-89
2023/05/23 01:09:23;445259.00;1.48;767.63;0.00;0.00;0.62;;;;;20.50;3.30;;;;;;2268180;61;1625;-89
2023/05/23 01:12:02;259902.00;0.87;448.98;0.00;0.00;0.62;;;;;20.60;3.00;;;;;;2307252;40;3625;-87
2023/05/23 01:14:35;127245.00;0.42;220.58;0.00;0.00;0.62;;;;;20.70;3.30;;;;;;2272303;61;1449;-87
2023/05/23 01:17:11;364798.00;1.22;629.30;0.00;0.00;0.62;;;;;20.60;3.10;;;;;;2272178;61;1055;-89
2023/05/23 01:19:59;217754.00;0.73;376.48;0.00;0.00;0.62;;;;;20.60;3.70;;;;;;2272296;61;1114;-88
2023/05/23 01:22:40;50772.00;0.17;88.52;0.00;0.00;0.62;;;;;20.60;3.60;;;;;;2272181;61;1476;-87
2023/05/23 01:25:17;212945.00;0.71;368.20;0.00;0.00;0.62;;;;;20.70;3.00;;;;;;2272206;61;1383;-88
2023/05/23 01:27:51;107065.00;0.36;185.77;0.00;0.00;0.62;;;;;20.60;3.30;;;;;;2272218;61;1118;-89
2023/05/23 01:30:20;290840.00;0.97;502.17;29640.00;0.10;51.96;;;;;20.70;3.40;;;;;;2272134;61;1067;-89
2023/05/23 01:32:51;130909.00;0.44;226.90;0.00;0.00;0.62;;;;;20.50;3.70;;;;;;2272122;61;1915;-88
2023/05/23 01:35:24;90249.00;0.30;156.74;0.00;0.00;0.62;;;;;20.50;3.80;;;;;;2272034;61;1389;-88
2023/05/23 01:37:51;201963.00;0.67;349.30;0.00;0.00;0.62;;;;;20.60;3.20;;;;;;2272152;61;999;-89
2023/05/23 01:40:17;186492.00;0.62;322.67;0.00;0.00;0.62;;;;;20.70;2.90;;;;;;2272167;61;963;-89
2023/05/23 01:42:44;238810.00;0.80;412.70;7395.00;0.02;13.44;;;;;20.70;3.20;;;;;;2272124;61;1099;-88
2023/05/23 01:45:15;197349.00;0.66;341.36;0.00;0.00;0.62;;;;;20.70;3.20;;;;;;2272091;61;1783;-88
2023/05/23 01:47:43;240657.00;0.80;415.88;0.00;0.00;0.62;;;;;20.40;4.00;;;;;;2272160;61;1137;-90
2023/05/23 01:50:11;268455.00;0.89;463.69;48835.00;0.16;85.17;;;;;20.40;5.30;;;;;;2272153;61;1018;-88
2023/05/23 01:52:39;195015.00;0.65;337.34;0.00;0.00;0.62;;;;;20.40;4.50;;;;;;2272004;61;1911;-89
2023/05/23 01:55:08;119434.00;0.40;207.11;0.00;0.00;0.62;;;;;20.50;4.10;;;;;;2272092;61;1420;-90
2023/05/23 01:57:37;194716.00;0.65;336.83;0.00;0.00;0.62;;;;;20.70;4.00;;;;;;2272076;61;1016;-87
2023/05/23 02:00:06;140202.00;0.47;242.92;0.00;0.00;0.62;;;;;20.60;3.90;;;;;;2271994;61;939;-88
2023/05/23 02:02:34;263206.00;0.88;454.66;0.00;0.00;0.62;;;;;20.60;4.30;;;;;;2272076;61;1114;-88
2023/05/23 02:05:01;312969.00;1.04;540.21;712.00;0.00;1.85;;;;;20.60;4.50;;;;;;2272124;61;1288;-88
2023/05/23 02:07:28;107274.00;0.36;186.13;0.00;0.00;0.62;;;;;20.70;4.40;;;;;;2272058;61;1041;-88
2023/05/23 02:09:56;130138.00;0.43;225.57;0.00;0.00;0.62;;;;;20.90;3.80;;;;;;2272000;61;1749;-88
2023/05/23 02:12:22;297395.00;0.99;513.44;0.00;0.00;0.62;;;;;20.90;3.80;;;;;;2271882;61;1988;-88
2023/05/23 02:14:50;289968.00;0.97;500.67;32524.00;0.11;56.95;;;;;20.80;3.90;;;;;;2272040;61;1272;-88
2023/05/23 02:17:18;337132.00;1.12;581.74;51732.00;0.17;90.18;;;;;20.80;3.90;;;;;;2272048;61;997;-88
2023/05/23 02:19:46;399952.00;1.33;689.72;24486.00;0.08;43.04;;;;;20.80;3.60;;;;;;2272045;61;1189;-89
2023/05/23 02:22:13;441383.00;1.47;760.96;10314.00;0.03;18.49;;;;;20.80;3.90;;;;;;2272005;61;1035;-88
2023/05/23 02:24:40;270281.00;0.90;466.83;0.00;0.00;0.62;;;;;21.00;3.40;;;;;;2271994;61;1394;-89
2023/05/23 02:27:07;247942.00;0.83;428.41;0.00;0.00;0.62;;;;;21.10;3.00;;;;;;2272013;61;1108;-86
2023/05/23 02:29:34;491254.00;1.64;846.77;103828.00;0.35;180.18;;;;;20.80;3.60;;;;;;2272016;61;929;-86
2023/05/23 02:32:01;212107.00;0.71;366.76;0.00;0.00;0.62;;;;;20.50;4.90;;;;;;2271959;61;1647;-87
2023/05/23 02:34:28;150571.00;0.50;260.79;0.00;0.00;0.62;;;;;20.60;4.80;;;;;;2271988;61;1993;-86
2023/05/23 02:36:56;325458.00;1.08;561.68;0.00;0.00;0.62;;;;;20.80;3.70;;;;;;2272020;61;1067;-88
2023/05/23 02:39:23;536783.00;1.79;925.18;11463.00;0.04;20.48;;;;;20.80;3.50;;;;;;2272048;61;1125;-87
2023/05/23 02:41:50;237763.00;0.79;410.90;0.00;0.00;0.62;;;;;20.60;4.60;;;;;;2272051;61;1009;-88
2023/05/23 02:44:18;170722.00;0.57;295.51;0.00;0.00;0.62;;;;;20.60;4.10;;;;;;2271942;61;1363;-86
2023/05/23 02:46:45;144931.00;0.48;251.07;0.00;0.00;0.62;;;;;20.80;4.20;;;;;;2272082;61;1142;-88
2023/05/23 02:49:12;33741.00;0.11;59.06;0.00;0.00;0.62;;;;;20.80;3.10;;;;;;2271951;61;1019;-89
2023/05/23 02:51:39;399436.00;1.33;688.84;40063.00;0.13;70.00;;;;;20.90;2.60;;;;;;2272043;61;1133;-89
2023/05/23 02:54:07;275160.00;0.92;475.22;0.00;0.00;0.62;;;;;20.80;3.30;;;;;;2271949;61;1993;-87
2023/05/23 02:56:34;140139.00;0.47;242.81;0.00;0.00;0.62;;;;;20.90;1.00;;;;;;2272101;61;1114;-89
2023/05/23 02:59:01;144095.00;0.48;249.63;0.00;0.00;0.62;;;;;20.70;3.10;;;;;;2272072;61;1003;-87
2023/05/23 03:01:28;117331032.00;391.10;65428444.00;0.00;0.00;0.62;;;;;20.70;3.00;;;;;;2272013;61;1748;-88
2023/05/23 03:03:55;271479.00;0.90;468.89;0.00;0.00;0.62;;;;;20.50;3.80;;;;;;2272307;61;1275;-89
2023/05/23 03:06:22;530103.00;1.77;913.67;0.00;0.00;0.62;;;;;20.20;5.10;;;;;;2272270;61;1107;-86
2023/05/23 03:08:49;295768.00;0.99;510.65;0.00;0.00;0.62;;;;;20.20;4.90;;;;;;2272299;61;1141;-88
2023/05/23 03:11:18;118973.00;0.40;206.31;0.00;0.00;0.62;;;;;20.30;5.30;;;;;;2272295;61;1068;-87
2023/05/23 03:13:45;269005.00;0.90;464.63;0.00;0.00;0.62;;;;;20.40;4.90;;;;;;2272244;61;1919;-87
2023/05/23 03:16:11;372918.00;1.24;643.25;0.00;0.00;0.62;;;;;20.50;4.50;;;;;;2272179;61;1197;-87
2023/05/23 03:18:40;161606.00;0.54;279.81;0.00;0.00;0.62;;;;;20.40;5.00;;;;;;2272177;61;1065;-88
2023/05/23 03:21:08;85254.00;0.28;148.11;0.00;0.00;0.62;;;;;20.20;5.40;;;;;;2272204;61;1187;-88
2023/05/23 03:23:35;445347.00;1.48;767.78;59839.00;0.20;104.20;;;;;20.30;5.60;;;;;;2272200;61;1205;-87
2023/05/23 03:26:02;175603.00;0.59;303.92;0.00;0.00;0.62;;;;;20.30;5.40;;;;;;2272285;61;1371;-88
2023/05/23 03:28:31;390828.00;1.30;674.04;2808.00;0.01;5.49;;;;;20.20;6.30;;;;;;2272214;61;1812;-88
2023/05/23 03:30:58;250944.00;0.84;433.57;0.00;0.00;0.62;;;;;20.30;6.00;;;;;;2272295;61;931;-87
2023/05/23 03:33:24;410323.00;1.37;707.55;0.00;0.00;0.62;;;;;20.60;4.80;;;;;;2272202;61;1993;-88
2023/05/23 03:35:51;418171.00;1.39;721.05;0.00;0.00;0.62;;;;;20.50;5.10;;;;;;2272225;61;1379;-87
2023/05/23 03:38:18;366318.00;1.22;631.91;0.00;0.00;0.62;;;;;20.50;5.30;;;;;;2272242;61;1333;-87
2023/05/23 03:40:46;383035.00;1.28;660.64;62524.00;0.21;108.84;;;;;20.50;5.20;;;;;;2272130;61;1610;-88
2023/05/23 03:43:12;157062.00;0.52;271.98;0.00;0.00;0.62;;;;;20.30;5.70;;;;;;2272196;61;1067;-88
2023/05/23 03:45:41;336787.00;1.12;581.15;0.00;0.00;0.62;;;;;20.20;5.20;;;;;;2272149;61;1386;-87
2023/05/23 03:48:08;280181.00;0.93;483.85;72984.00;0.24;126.92;;;;;20.30;4.90;;;;;;2272174;61;1042;-88
2023/05/23 03:50:35;233507.00;0.78;403.58;0.00;0.00;0.62;;;;;20.20;4.90;;;;;;2272114;61;1048;-86
2023/05/23 03:53:02;171638.00;0.57;297.09;0.00;0.00;0.62;;;;;20.10;5.80;;;;;;2272080;61;2008;-88
2023/05/23 03:55:30;206647.00;0.69;357.36;0.00;0.00;0.62;;;;;20.30;6.10;;;;;;2272181;61;1306;-88
2023/05/23 03:57:57;36914.00;0.12;64.55;0.00;0.00;0.62;;;;;20.50;4.30;;;;;;2272714;61;1012;-89
2023/05/23 04:00:25;439992.00;1.47;758.57;98629.00;0.33;171.21;;;;;20.50;4.40;;;;;;2272966;61;1035;-87
2023/05/23 04:02:53;261558.00;0.87;451.83;0.00;0.00;0.62;;;;;20.50;4.70;;;;;;2272980;61;1121;-87
2023/05/23 04:05:20;106674.00;0.36;185.09;0.00;0.00;0.62;;;;;20.50;4.30;;;;;;2272996;61;1272;-87
2023/05/23 04:07:47;95496.00;0.32;165.80;0.00;0.00;0.62;;;;;20.30;4.70;;;;;;2273007;61;1132;-89
2023/05/23 04:10:14;230821.00;0.77;398.96;26475.00;0.09;46.48;;;;;20.50;4.50;;;;;;2272928;61;1119;-87
2023/05/23 04:12:41;60630.00;0.20;105.57;0.00;0.00;0.62;;;;;20.60;4.50;;;;;;2272986;61;1985;-87
2023/05/23 04:15:10;180731.00;0.60;312.75;57243.00;0.19;99.71;;;;;20.60;4.30;;;;;;2272921;61;1371;-89
2023/05/23 04:17:37;113644.00;0.38;197.12;0.00;0.00;0.62;;;;;20.70;4.20;;;;;;2272959;61;1187;-86
2023/05/23 04:20:08;296763.00;0.99;512.36;13569.00;0.05;24.13;;;;;20.50;4.60;;;;;;2272854;61;1769;-87
2023/05/23 04:22:35;627198.00;2.09;1081.21;94433.00;0.31;163.96;;;;;20.40;5.50;;;;;;2272903;61;1600;-87
2023/05/23 04:25:02;326140.00;1.09;562.85;0.00;0.00;0.62;;;;;20.50;5.60;;;;;;2272817;61;1661;-87
2023/05/23 04:27:29;269237.00;0.90;465.03;0.00;0.00;0.62;;;;;20.40;6.30;;;;;;2272906;61;1202;-87
2023/05/23 04:29:57;309158.00;1.03;533.66;21137.00;0.07;37.24;;;;;20.40;6.30;;;;;;2272859;61;1066;-87
2023/05/23 04:32:25;231190.00;0.77;399.60;0.00;0.00;0.62;;;;;20.40;6.20;;;;;;2272923;61;920;-87
2023/05/23 04:34:51;495122.00;1.65;853.43;0.00;0.00;0.62;;;;;20.50;6.40;;;;;;2272759;61;2019;-88
2023/05/23 04:37:24;636429.00;2.12;1097.16;25124.00;0.08;44.14;;;;;20.50;6.20;;;;;;2272821;61;1620;-87
2023/05/23 04:39:52;305280.00;1.02;527.00;49298.00;0.16;85.97;;;;;20.50;6.50;;;;;;2272864;61;1142;-88
2023/05/23 04:42:24;335647.00;1.12;579.19;69451.00;0.23;120.81;;;;;20.50;6.40;;;;;;2272868;61;1176;-88
2023/05/23 04:44:52;118052.00;0.39;204.72;0.00;0.00;0.62;;;;;20.80;5.10;;;;;;2272750;61;1452;-89
2023/05/23 04:47:19;301786.00;1.01;520.99;0.00;0.00;0.62;;;;;20.90;4.50;;;;;;2272875;61;920;-88
2023/05/23 04:49:46;23054.00;0.08;40.56;0.00;0.00;0.62;;;;;20.90;4.20;;;;;;2272692;61;1008;-88
2023/05/23 04:52:13;255558.00;0.85;441.51;0.00;0.00;0.62;;;;;20.40;6.10;;;;;;2272824;61;1118;-89
2023/05/23 04:54:43;504547.00;1.68;869.65;1099.00;0.00;2.52;;;;;20.10;7.40;;;;;;2272741;61;1985;-88
2023/05/23 04:57:11;409286.00;1.36;705.77;24105.00;0.08;42.38;;;;;20.20;7.30;;;;;;2277648;40;3581;-87
2023/05/23 04:59:38;369982.00;1.23;638.21;0.00;0.00;0.62;;;;;20.20;7.50;;;;;;2268713;61;1084;-88
2023/05/23 05:02:06;476039.00;1.59;820.58;35557.00;0.12;62.20;;;;;20.30;7.00;;;;;;2268758;61;1562;-87
2023/05/23 05:04:33;99537.00;0.33;172.77;0.00;0.00;0.62;;;;;20.60;6.60;;;;;;2268698;61;1396;-87
2023/05/23 05:07:02;267672.00;0.89;462.34;315.00;0.00;1.17;;;;;20.70;6.70;;;;;;2268612;61;1105;-87
2023/05/23 05:09:29;182031.00;0.61;314.99;0.00;0.00;0.62;;;;;20.70;6.50;;;;;;2268517;61;1038;-88
2023/05/23 05:11:57;500514.00;1.67;862.71;46925.00;0.16;81.87;;;;;21.00;5.70;;;;;;2268674;61;1087;-86
2023/05/23 05:14:26;85084.00;0.28;147.82;0.00;0.00;0.62;;;;;21.00;6.00;;;;;;2268630;61;1989;-89
2023/05/23 05:16:53;89969.00;0.30;156.25;0.00;0.00;0.62;;;;;21.20;5.70;;;;;;2268736;61;987;-91
2023/05/23 05:19:20;322384.00;1.07;556.40;0.00;0.00;0.62;;;;;21.20;4.90;;;;;;2268719;61;926;-87
2023/05/23 05:21:47;234222.00;0.78;404.81;0.00;0.00;0.62;;;;;21.20;4.70;;;;;;2268645;61;922;-87
2023/05/23 05:24:14;204114.00;0.68;353.00;0.00;0.00;0.62;;;;;21.40;5.40;;;;;;2268673;61;1325;-89
2023/05/23 05:26:41;424304.00;1.41;731.59;29751.00;0.10;52.15;;;;;21.40;5.10;;;;;;2268628;61;1126;-86
2023/05/23 05:29:10;250913.00;0.84;433.52;0.00;0.00;0.62;;;;;21.30;4.50;;;;;;2268630;61;1090;-88
2023/05/23 05:31:37;156118.00;0.52;270.35;0.00;0.00;0.62;;;;;21.30;4.90;;;;;;2268644;61;1101;-89
2023/05/23 05:34:04;316698.00;1.06;546.62;18795.00;0.06;33.18;;;;;21.40;4.20;;;;;;2268613;61;1912;-89
2023/05/23 05:36:31;223800.00;0.75;386.88;31878.00;0.11;55.83;;;;;21.40;4.50;;;;;;2268634;61;1743;-89
2023/05/23 05:38:58;282333.00;0.94;487.55;0.00;0.00;0.62;;;;;21.50;5.00;;;;;;2268617;61;917;-89
2023/05/23 05:41:25;356554.00;1.19;615.13;48922.00;0.16;85.32;;;;;21.60;4.30;;;;;;2268648;61;964;-90
2023/05/23 05:43:52;284461.00;0.95;491.21;0.00;0.00;0.62;;;;;21.70;3.90;;;;;;2268610;61;1110;-88
2023/05/23 05:46:28;568282.00;1.89;979.48;42040.00;0.14;73.42;;;;;21.50;3.90;;;;;;2268510;61;1483;-90
2023/05/23 05:48:55;444115.00;1.48;765.66;82093.00;0.27;142.65;;;;;21.60;4.30;;;;;;2268563;61;1158;-91
2023/05/23 05:51:22;280192.00;0.93;483.87;0.00;0.00;0.62;;;;;21.80;3.70;;;;;;2268637;61;1153;-89
2023/05/23 05:53:49;557445.00;1.86;960.79;61341.00;0.20;106.79;;;;;21.70;4.60;;;;;;2268578;61;1915;-89
2023/05/23 05:56:16;431050.00;1.44;743.19;19408.00;0.06;34.24;;;;;21.80;3.70;;;;;;2268208;61;1418;-88
2023/05/23 05:58:43;228737.00;0.76;395.38;8719.00;0.03;15.73;;;;;21.70;3.40;;;;;;2268541;61;1725;-88
2023/05/23 06:01:10;169152.00;0.56;292.81;0.00;0.00;0.62;;;;;21.70;3.20;;;;;;2268618;61;1071;-88
2023/05/23 06:03:38;426602.00;1.42;735.54;0.00;0.00;0.62;;;;;21.70;3.90;;;;;;2268584;61;1106;-89
2023/05/23 06:06:05;352853.00;1.18;608.76;0.00;0.00;0.62;;;;;21.80;3.90;;;;;;2268499;61;1668;-88
2023/05/23 06:08:32;186576.00;0.62;322.81;0.00;0.00;0.62;;;;;22.00;4.10;;;;;;2268539;61;1126;-88
2023/05/23 06:10:59;264520.00;0.88;456.92;11233.00;0.04;20.09;;;;;22.10;4.00;;;;;;2268547;61;939;-87
2023/05/23 06:13:26;419609.00;1.40;723.52;56767.00;0.19;98.89;;;;;22.30;3.30;;;;;;2268477;61;1911;-87
2023/05/23 06:15:52;165166.00;0.55;285.94;0.00;0.00;0.62;;;;;22.30;2.80;;;;;;2268457;61;1430;-89
2023/05/23 06:18:19;323113.00;1.08;557.65;38641.00;0.13;67.54;;;;;22.20;3.20;;;;;;2268475;61;1050;-88
2023/05/23 06:20:48;549483.00;1.83;947.07;50314.00;0.17;87.73;;;;;22.10;3.30;;;;;;2268365;61;1123;-87
2023/05/23 06:23:14;657508.00;2.19;1133.63;60856.00;0.20;105.96;;;;;22.10;3.30;;;;;;2268447;61;927;-86
2023/05/23 06:25:41;407885.00;1.36;703.36;13846.00;0.05;24.61;;;;;22.20;3.60;;;;;;2268282;61;1314;-89
2023/05/23 06:28:08;690301.00;2.30;1190.42;65756.00;0.22;114.43;;;;;22.10;3.20;;;;;;2268372;61;1082;-88
2023/05/23 06:33:04;738351.00;2.46;1273.81;109291.00;0.36;189.61;;;;;21.90;4.70;;;;;;2273887;61;1331;-88
2023/05/23 06:35:31;420878.00;1.40;725.70;43027.00;0.14;75.13;;;;;21.90;3.90;;;;;;2272272;61;1935;-87
2023/05/23 06:38:00;465010.00;1.55;801.60;82369.00;0.27;143.13;;;;;21.90;3.80;;;;;;2272394;61;1384;-88
2023/05/23 06:40:27;224062.00;0.75;387.33;0.00;0.00;0.62;;;;;21.90;4.10;;;;;;2272298;61;1066;-87
2023/05/23 06:42:54;143038.00;0.48;247.81;0.00;0.00;0.62;;;;;21.90;3.20;;;;;;2272321;61;1039;-87
2023/05/23 06:45:21;287555.00;0.96;496.53;16299.00;0.05;28.86;;;;;21.70;3.50;;;;;;2272220;61;1341;-88
2023/05/23 06:47:48;285575.00;0.95;493.12;11970.00;0.04;21.36;;;;;21.70;3.50;;;;;;2272296;61;927;-89
2023/05/23 06:50:18;449127.00;1.50;774.28;0.00;0.00;0.62;;;;;21.50;2.30;;;;;;2272201;61;1769;-87
2023/05/23 06:52:45;336926.00;1.12;581.39;39019.00;0.13;68.19;;;;;21.50;3.70;;;;;;2272194;61;1095;-89
2023/05/23 06:55:17;321220.00;1.07;554.40;0.00;0.00;0.62;;;;;21.90;3.60;;;;;;2272123;61;1980;-88
2023/05/23 06:57:44;218174.00;0.73;377.20;0.00;0.00;0.62;;;;;22.10;3.20;;;;;;2272184;61;1061;-89
2023/05/23 07:00:12;216269.00;0.72;373.92;0.00;0.00;0.62;;;;;22.20;3.10;;;;;;2272151;61;1145;-88
2023/05/23 07:02:39;307379.00;1.02;530.60;0.00;0.00;0.62;;;;;22.50;1.80;;;;;;2272288;61;1038;-88
2023/05/23 07:05:07;216378.00;0.72;374.11;0.00;0.00;0.62;;;;;22.80;1.00;;;;;;2272142;61;1717;-87
2023/05/23 07:07:34;185826.00;0.62;321.52;0.00;0.00;0.62;;;;;23.10;1.00;;;;;;2272207;61;1058;-87
2023/05/23 07:10:00;152316.00;0.51;263.80;0.00;0.00;0.62;;;;;23.10;1.00;;;;;;2272092;61;1037;-88
2023/05/23 07:12:29;226434.00;0.75;391.41;0.00;0.00;0.62;;;;;22.90;1.00;;;;;;2272144;61;1064;-87
2023/05/23 07:14:56;260033.00;0.87;449.21;0.00;0.00;0.62;;;;;22.60;1.00;;;;;;2272111;61;1919;-88
2023/05/23 07:17:22;365132.00;1.22;629.87;0.00;0.00;0.62;;;;;22.20;1.00;;;;;;2272077;61;1749;-88
2023/05/23 07:19:49;391462.00;1.30;675.13;0.00;0.00;0.62;;;;;22.30;1.70;;;;;;2272723;55;3753;-86
2023/05/23 07:24:45;615986.00;2.05;1061.83;71224.00;0.24;123.88;;;;;22.10;1.00;;;;;;2265573;61;1369;-88
2023/05/23 07:27:12;212595.00;0.71;367.60;0.00;0.00;0.62;;;;;22.00;1.40;;;;;;2264023;61;1035;-89
2023/05/23 07:29:40;323520.00;1.08;558.35;0.00;0.00;0.62;;;;;22.10;1.60;;;;;;2264062;61;1015;-88
2023/05/23 07:32:07;495643.00;1.65;854.32;95258.00;0.32;165.39;;;;;22.20;1.00;;;;;;2263760;61;1048;-87
2023/05/23 07:34:33;304785.00;1.02;526.15;0.00;0.00;0.62;;;;;22.20;1.00;;;;;;2263890;61;1918;-89
2023/05/23 07:37:00;474634.00;1.58;818.16;27354.00;0.09;48.00;;;;;22.00;1.00;;;;;;2263971;61;1638;-88
2023/05/23 07:39:27;445311.00;1.48;767.72;0.00;0.00;0.62;;;;;21.80;1.40;;;;;;2264021;61;926;-88
2023/05/23 07:41:54;346266.00;1.15;597.44;0.00;0.00;0.62;;;;;21.80;2.00;;;;;;2264037;61;1091;-87
2023/05/23 07:44:21;372952.00;1.24;643.31;0.00;0.00;0.62;;;;;21.80;1.70;;;;;;2263938;61;1372;-88
2023/05/23 07:46:49;571685.00;1.91;985.35;0.00;0.00;0.62;;;;;21.90;2.10;;;;;;2264012;61;1012;-88
2023/05/23 07:49:16;259742.00;0.87;448.70;0.00;0.00;0.62;;;;;21.90;1.00;;;;;;2263963;61;1111;-87
2023/05/23 07:51:43;179385.00;0.60;310.43;0.00;0.00;0.62;;;;;21.80;1.00;;;;;;2263963;61;1025;-88
2023/05/23 07:54:10;308581.00;1.03;532.67;0.00;0.00;0.62;;;;;21.80;1.30;;;;;;2263903;61;1990;-88
2023/05/23 07:56:38;653052.00;2.18;1125.92;21948.00;0.07;38.64;;;;;21.70;1.00;;;;;;2263966;61;1049;-87
2023/05/23 07:59:05;308299.00;1.03;532.19;0.00;0.00;0.62;;;;;21.50;1.70;;;;;;2263970;61;1258;-87
2023/05/23 08:01:32;375488.00;1.25;647.67;16683.00;0.06;29.53;;;;;21.50;1.70;;;;;;2263915;61;1627;-88
2023/05/23 08:04:00;414574.00;1.38;714.86;0.00;0.00;0.62;;;;;21.30;1.50;;;;;;2263917;61;1717;-87
2023/05/23 08:06:27;449320.00;1.50;774.61;0.00;0.00;0.62;;;;;21.00;2.10;;;;;;2264005;61;1065;-85
2023/05/23 08:08:53;586778.00;1.96;1011.40;39734.00;0.13;69.43;;;;;20.80;2.20;;;;;;2263993;61;1050;-87
2023/05/23 08:11:20;366065.00;1.22;631.47;0.00;0.00;0.62;;;;;20.40;2.70;;;;;;2264033;61;946;-87
2023/05/23 08:13:47;346765.00;1.16;598.30;0.00;0.00;0.62;;;;;20.30;2.90;;;;;;2263955;61;1536;-87
2023/05/23 08:16:14;300516.00;1.00;518.81;0.00;0.00;0.62;;;;;20.10;4.40;;;;;;2263979;61;2002;-85
2023/05/23 08:18:41;837094.00;2.79;1445.89;25655.00;0.09;45.06;;;;;19.90;4.00;;;;;;2263976;61;1115;-87
2023/05/23 08:21:09;440898.00;1.47;760.13;0.00;0.00;0.62;;;;;20.10;4.40;;;;;;2263933;61;981;-87
2023/05/23 08:23:36;449725.00;1.50;775.31;0.00;0.00;0.62;;;;;20.20;4.30;;;;;;2268546;40;3543;-87
2023/05/23 08:26:03;434506.00;1.45;749.13;4361.00;0.01;8.18;;;;;20.20;3.10;;;;;;2267916;61;1438;-85
2023/05/23 08:28:30;396303.00;1.32;683.45;0.00;0.00;0.62;;;;;20.20;3.00;;;;;;2267914;61;1129;-88
2023/05/23 08:30:57;513041.00;1.71;884.28;0.00;0.00;0.62;;;;;20.40;2.80;;;;;;2268007;61;1099;-88
2023/05/23 08:33:24;467011.00;1.56;805.05;37831.00;0.13;66.14;;;;;20.40;2.00;;;;;;2267915;61;937;-86
2023/05/23 08:35:50;477344.00;1.59;822.83;59070.00;0.20;102.87;;;;;20.70;1.00;;;;;;2267869;61;1939;-87
2023/05/23 08:38:20;608481.00;2.03;1048.87;0.00;0.00;0.62;;;;;20.40;1.90;;;;;;2268007;61;1171;-86
2023/05/23 08:40:51;275166.00;0.92;475.23;0.00;0.00;0.62;;;;;20.30;2.50;;;;;;2267980;61;1359;-87
2023/05/23 08:43:18;917905.00;3.06;1587.59;173930.00;0.58;301.04;;;;;20.30;2.60;;;;;;2268299;61;1079;-87
2023/05/23 08:45:45;150337.00;0.50;260.39;0.00;0.00;0.62;;;;;20.40;2.20;;;;;;2268627;61;1406;-86
2023/05/23 08:48:14;420028.00;1.40;724.24;0.00;0.00;0.62;;;;;20.50;1.30;;;;;;2268698;61;917;-86
2023/05/23 08:50:47;181176.00;0.60;313.51;0.00;0.00;0.62;;;;;20.70;1.00;;;;;;2268761;61;1037;-87
2023/05/23 08:53:19;120380.00;0.40;208.74;0.00;0.00;0.62;;;;;20.90;1.00;;;;;;2268713;61;1223;-87
2023/05/23 08:55:49;299613.00;1.00;517.25;0.00;0.00;0.62;;;;;20.90;1.00;;;;;;2268581;61;2165;-87
2023/05/23 08:58:19;58909.00;0.20;102.59;0.00;0.00;0.62;;;;;20.70;1.00;;;;;;2268620;61;1104;-86
2023/05/23 09:00:47;125958.00;0.42;218.36;0.00;0.00;0.62;;;;;20.50;1.00;;;;;;2268245;61;1067;-86
2023/05/23 09:03:14;133184.00;0.44;230.82;0.00;0.00;0.62;;;;;19.90;1.60;;;;;;2268213;61;2041;-87
2023/05/23 09:05:42;213012.00;0.71;368.32;0.00;0.00;0.62;;;;;19.80;3.10;;;;;;2268498;61;1277;-87
2023/05/23 09:08:09;359928.00;1.20;620.93;10006.00;0.03;17.96;;;;;19.90;1.90;;;;;;2268651;61;1070;-86
2023/05/23 09:10:36;171436.00;0.57;296.74;0.00;0.00;0.62;;;;;19.90;2.90;;;;;;2268646;61;1053;-85
2023/05/23 09:13:06;128810.00;0.43;223.28;0.00;0.00;0.62;;;;;20.20;1.60;;;;;;2268610;61;1022;-87
2023/05/23 09:15:33;239731.00;0.80;414.29;0.00;0.00;0.62;;;;;20.40;1.00;;;;;;2268674;61;2008;-87
2023/05/23 09:18:02;133483.00;0.44;231.34;0.00;0.00;0.62;;;;;20.60;1.00;;;;;;2268728;61;1214;-86
2023/05/23 09:20:29;137018.00;0.46;237.43;0.00;0.00;0.62;;;;;20.70;1.00;;;;;;2268545;61;2132;-86
2023/05/23 09:22:56;147851.00;0.49;256.10;0.00;0.00;0.62;;;;;20.70;1.00;;;;;;2268623;61;1029;-87
2023/05/23 09:25:23;89314.00;0.30;155.12;0.00;0.00;0.62;;;;;20.50;1.00;;;;;;2268606;61;1378;-86
2023/05/23 09:27:52;109702.00;0.37;190.32;0.00;0.00;0.62;;;;;20.40;1.00;;;;;;2268599;61;1127;-86
2023/05/23 09:30:20;269005.00;0.90;464.63;5113.00;0.02;9.48;;;;;20.40;1.00;;;;;;2268682;61;1013;-84
2023/05/23 09:32:59;283743.00;0.95;489.97;0.00;0.00;0.62;;;;;20.20;1.00;;;;;;2268460;61;1167;-87
2023/05/23 09:35:28;164843.00;0.55;285.38;0.00;0.00;0.62;;;;;20.80;1.00;;;;;;2268453;61;1915;-86
2023/05/23 09:37:58;27954.00;0.09;49.04;0.00;0.00;0.62;;;;;21.10;1.00;;;;;;2268430;61;1707;-87
2023/05/23 09:40:31;189777.00;0.63;328.32;27513.00;0.09;48.28;;;;;21.00;1.00;;;;;;2268574;61;1049;-88
2023/05/23 09:43:03;154730.00;0.52;267.96;0.00;0.00;0.62;;;;;20.80;1.00;;;;;;2268514;61;1110;-86
2023/05/23 09:45:33;139790.00;0.47;242.21;0.00;0.00;0.62;;;;;20.70;1.00;;;;;;2268529;61;1399;-87
2023/05/23 09:48:00;569303.00;1.90;981.24;60799.00;0.20;105.86;;;;;20.80;1.00;;;;;;2268491;61;1349;-87
2023/05/23 09:50:32;200165.00;0.67;346.21;9988.00;0.03;17.93;;;;;21.10;1.00;;;;;;2268492;61;1625;-86
2023/05/23 09:52:59;157844.00;0.53;273.32;0.00;0.00;0.62;;;;;21.10;1.00;;;;;;2268604;61;1039;-87
2023/05/23 09:55:26;446787.00;1.49;770.26;146014.00;0.49;252.94;;;;;21.00;1.00;;;;;;2268288;61;1920;-86
2023/05/23 09:57:55;157217.00;0.52;272.24;0.00;0.00;0.62;;;;;21.00;1.00;;;;;;2268511;61;1135;-87